createdAt,value
2017-04-04T00:01:01.155Z,98.73
2017-04-04T00:02:13.657Z,99.11
2017-04-04T00:03:26.196Z,98.73
2017-04-04T00:04:38.439Z,98.64
2017-04-04T00:05:50.357Z,98.26
2017-04-04T00:07:02.885Z,98.64
2017-04-04T00:08:15.398Z,98.45
2017-04-04T00:09:27.873Z,98.54
2017-04-04T00:10:40.398Z,98.5
2017-04-04T00:11:52.957Z,98.5
2017-04-04T00:13:05.478Z,98.79
2017-04-04T00:14:17.703Z,98.21
2017-04-04T00:15:29.920Z,98.31
2017-04-04T00:16:42.142Z,98.4
2017-04-04T00:17:54.686Z,98.5
2017-04-04T00:19:07.234Z,98.5
2017-04-04T00:20:20.003Z,98.02
2017-04-04T00:21:32.232Z,98.02
2017-04-04T00:22:44.471Z,98.12
2017-04-04T00:23:57.002Z,97.74
2017-04-04T00:25:09.545Z,97.83
2017-04-04T00:26:22.068Z,97.83
2017-04-04T00:27:34.611Z,97.92
2017-04-04T00:28:47.161Z,97.64
2017-04-04T00:29:59.710Z,97.27
2017-04-04T00:31:12.229Z,97.55
2017-04-04T00:32:24.766Z,97.6
2017-04-04T00:33:36.966Z,97.78
2017-04-04T00:34:49.509Z,97.6
2017-04-04T00:36:02.038Z,97.78
2017-04-04T00:37:13.971Z,97.31
2017-04-04T00:38:26.181Z,97.22
2017-04-04T00:39:38.416Z,97.22
2017-04-04T00:40:50.959Z,97.22
2017-04-04T00:42:03.480Z,97.31
2017-04-04T00:43:16.029Z,97.5
2017-04-04T00:44:28.258Z,97.31
2017-04-04T00:45:40.800Z,97.12
2017-04-04T00:46:53.317Z,97.22
2017-04-04T00:48:05.862Z,97.22
2017-04-04T00:49:17.780Z,96.84
2017-04-04T00:50:30.333Z,96.74
2017-04-04T00:51:42.858Z,97.31
2017-04-04T00:52:55.396Z,97.03
2017-04-04T00:54:07.921Z,97.03
2017-04-04T00:55:20.439Z,97.22
2017-04-04T00:56:32.984Z,97.03
2017-04-04T00:57:45.218Z,97.03
2017-04-04T00:58:58.009Z,96.74
2017-04-04T01:00:10.568Z,96.93
2017-04-04T01:01:23.114Z,97.22
2017-04-04T01:02:35.321Z,97.03
2017-04-04T01:03:47.593Z,96.98
2017-04-04T01:05:00.116Z,96.89
2017-04-04T01:06:12.661Z,96.89
2017-04-04T01:07:25.222Z,96.89
2017-04-04T01:08:37.740Z,96.74
2017-04-04T01:09:50.262Z,96.79
2017-04-04T01:11:02.793Z,96.79
2017-04-04T01:12:15.332Z,96.89
2017-04-04T01:13:27.251Z,96.79
2017-04-04T01:14:39.462Z,97.08
2017-04-04T01:15:51.973Z,97.08
2017-04-04T01:17:04.219Z,96.31
2017-04-04T01:18:16.749Z,96.41
2017-04-04T01:19:28.385Z,96.41
2017-04-04T01:20:40.936Z,96.41
2017-04-04T01:21:53.481Z,96.6
2017-04-04T01:23:06.052Z,96.6
2017-04-04T01:24:18.295Z,96.79
2017-04-04T01:25:31.119Z,96.79
2017-04-04T01:26:43.636Z,96.69
2017-04-04T01:27:56.182Z,96.89
2017-04-04T01:29:08.727Z,96.89
2017-04-04T01:30:20.679Z,96.89
2017-04-04T01:31:33.248Z,96.41
2017-04-04T01:32:45.770Z,96.69
2017-04-04T01:33:58.312Z,96.31
2017-04-04T01:35:10.532Z,96.31
2017-04-04T01:36:23.078Z,96.31
2017-04-04T01:37:35.570Z,95.94
2017-04-04T01:38:47.791Z,95.75
2017-04-04T01:40:00.316Z,95.75
2017-04-04T01:41:12.837Z,95.84
2017-04-04T01:42:25.386Z,95.94
2017-04-04T01:43:37.926Z,95.08
2017-04-04T01:44:50.475Z,95.75
2017-04-04T01:46:03.013Z,95.27
2017-04-04T01:47:15.295Z,95.65
2017-04-04T01:48:27.813Z,95.36
2017-04-04T01:49:40.319Z,95.27
2017-04-04T01:50:52.598Z,95.56
2017-04-04T01:52:05.125Z,95.27
2017-04-04T01:53:17.671Z,95.36
2017-04-04T01:54:30.209Z,95.27
2017-04-04T01:55:42.742Z,94.79
2017-04-04T01:56:55.284Z,95.46
2017-04-04T01:58:07.808Z,94.98
2017-04-04T01:59:20.053Z,95.46
2017-04-04T02:00:32.289Z,95.46
2017-04-04T02:01:44.818Z,95.46
2017-04-04T02:02:56.760Z,94.89
2017-04-04T02:04:09.312Z,95.17
2017-04-04T02:05:21.855Z,94.98
2017-04-04T02:06:34.069Z,94.79
2017-04-04T02:07:46.593Z,94.98
2017-04-04T02:08:59.397Z,94.98
2017-04-04T02:10:11.631Z,95.27
2017-04-04T02:11:24.162Z,94.98
2017-04-04T02:12:36.402Z,94.89
2017-04-04T02:13:48.951Z,95.36
2017-04-04T02:15:01.492Z,95.27
2017-04-04T02:16:13.689Z,95.08
2017-04-04T02:17:26.216Z,95.36
2017-04-04T02:18:38.739Z,95.36
2017-04-04T02:19:51.260Z,95.36
2017-04-04T02:21:03.781Z,95.36
2017-04-04T02:22:16.303Z,95.17
2017-04-04T02:23:28.835Z,95.08
2017-04-04T02:24:41.081Z,95.08
2017-04-04T02:25:53.303Z,95.17
2017-04-04T02:27:05.862Z,95.27
2017-04-04T02:28:18.383Z,95.27
2017-04-04T02:29:30.891Z,95.36
2017-04-04T02:30:43.669Z,95.36
2017-04-04T02:31:56.207Z,95.36
2017-04-04T02:33:08.440Z,95.27
2017-04-04T02:34:21.007Z,95.36
2017-04-04T02:35:33.549Z,95.36
2017-04-04T02:36:45.803Z,95.27
2017-04-04T02:37:58.349Z,95.17
2017-04-04T02:39:10.894Z,95.17
2017-04-04T02:40:23.418Z,95.65
2017-04-04T02:41:36.261Z,95.65
2017-04-04T02:42:48.203Z,95.65
2017-04-04T02:44:00.758Z,95.94
2017-04-04T02:45:13.295Z,95.65
2017-04-04T02:46:25.520Z,95.75
2017-04-04T02:47:37.765Z,95.36
2017-04-04T02:48:50.311Z,95.36
2017-04-04T02:50:02.882Z,95.56
2017-04-04T02:51:15.421Z,95.56
2017-04-04T02:52:28.193Z,95.46
2017-04-04T02:53:40.709Z,95.36
2017-04-04T02:54:53.218Z,95.46
2017-04-04T02:56:05.789Z,95.75
2017-04-04T02:57:18.023Z,95.36
2017-04-04T02:58:30.254Z,95.27
2017-04-04T02:59:42.789Z,95.46
2017-04-04T03:00:55.313Z,96.12
2017-04-04T03:02:07.556Z,95.27
2017-04-04T03:03:20.388Z,95.94
2017-04-04T03:04:32.951Z,95.84
2017-04-04T03:05:45.471Z,95.65
2017-04-04T03:06:58.045Z,95.75
2017-04-04T03:08:10.567Z,95.75
2017-04-04T03:09:23.084Z,95.94
2017-04-04T03:10:35.601Z,96.03
2017-04-04T03:11:48.102Z,95.75
2017-04-04T03:13:00.376Z,95.94
2017-04-04T03:14:12.901Z,95.75
2017-04-04T03:15:25.147Z,95.84
2017-04-04T03:16:37.385Z,95.84
2017-04-04T03:17:49.885Z,95.84
2017-04-04T03:19:02.102Z,95.94
2017-04-04T03:20:14.647Z,95.75
2017-04-04T03:21:26.873Z,95.94
2017-04-04T03:22:39.425Z,95.84
2017-04-04T03:23:51.964Z,95.75
2017-04-04T03:25:04.784Z,95.56
2017-04-04T03:26:17.027Z,96.12
2017-04-04T03:27:29.544Z,95.94
2017-04-04T03:28:42.093Z,96.12
2017-04-04T03:29:54.639Z,96.03
2017-04-04T03:31:06.865Z,96.5
2017-04-04T03:32:19.392Z,96.12
2017-04-04T03:33:31.899Z,96.6
2017-04-04T03:34:44.431Z,96.41
2017-04-04T03:35:56.994Z,96.31
2017-04-04T03:37:08.940Z,96.5
2017-04-04T03:38:21.482Z,96.41
2017-04-04T03:39:34.007Z,96.31
2017-04-04T03:40:46.535Z,96.41
2017-04-04T03:41:59.071Z,96.22
2017-04-04T03:43:11.598Z,96.31
2017-04-04T03:44:24.123Z,96.31
2017-04-04T03:45:36.694Z,96.41
2017-04-04T03:46:49.212Z,96.22
2017-04-04T03:48:01.732Z,96.41
2017-04-04T03:49:14.262Z,96.5
2017-04-04T03:50:26.799Z,96.12
2017-04-04T03:51:39.340Z,96.12
2017-04-04T03:52:51.917Z,96.41
2017-04-04T03:54:04.482Z,96.31
2017-04-04T03:55:17.029Z,96.22
2017-04-04T03:56:29.545Z,96.5
2017-04-04T03:57:42.349Z,96.31
2017-04-04T03:58:54.569Z,96.5
2017-04-04T04:00:06.809Z,96.22
2017-04-04T04:01:19.336Z,96.69
2017-04-04T04:02:31.882Z,96.5
2017-04-04T04:03:44.703Z,96.31
2017-04-04T04:04:56.628Z,96.41
2017-04-04T04:06:09.173Z,96.41
2017-04-04T04:07:21.712Z,96.12
2017-04-04T04:08:33.988Z,96.89
2017-04-04T04:09:46.502Z,96.5
2017-04-04T04:10:59.022Z,96.31
2017-04-04T04:12:11.279Z,96.6
2017-04-04T04:13:23.487Z,96.41
2017-04-04T04:14:35.735Z,96.22
2017-04-04T04:15:47.959Z,96.12
2017-04-04T04:17:00.513Z,96.22
2017-04-04T04:18:13.030Z,96.41
2017-04-04T04:19:25.261Z,96.5
2017-04-04T04:20:37.793Z,96.31
2017-04-04T04:21:50.335Z,96.41
2017-04-04T04:23:02.866Z,96.31
2017-04-04T04:24:15.416Z,96.41
2017-04-04T04:25:27.952Z,96.6
2017-04-04T04:26:40.501Z,96.12
2017-04-04T04:27:53.047Z,96.22
2017-04-04T04:29:05.570Z,96.12
2017-04-04T04:30:17.792Z,96.22
2017-04-04T04:31:30.035Z,96.41
2017-04-04T04:32:42.580Z,96.03
2017-04-04T04:33:55.097Z,96.41
2017-04-04T04:35:07.623Z,96.5
2017-04-04T04:36:20.180Z,95.46
2017-04-04T04:37:32.718Z,95.75
2017-04-04T04:38:44.964Z,95.75
2017-04-04T04:39:57.481Z,95.36
2017-04-04T04:41:10.006Z,95.27
2017-04-04T04:42:22.244Z,95.46
2017-04-04T04:43:34.772Z,95.27
2017-04-04T04:44:47.307Z,95.27
2017-04-04T04:45:59.532Z,95.36
2017-04-04T04:47:11.457Z,95.36
2017-04-04T04:48:23.970Z,95.27
2017-04-04T04:49:36.492Z,95.36
2017-04-04T04:50:49.037Z,95.46
2017-04-04T04:52:01.869Z,95.36
2017-04-04T04:53:13.832Z,94.98
2017-04-04T04:54:26.361Z,95.27
2017-04-04T04:55:38.896Z,95.46
2017-04-04T04:56:51.417Z,95.17
2017-04-04T04:58:03.926Z,94.89
2017-04-04T04:59:16.487Z,94.89
2017-04-04T05:00:28.404Z,95.36
2017-04-04T05:01:40.925Z,95.08
2017-04-04T05:02:53.704Z,95.27
2017-04-04T05:04:06.220Z,95.75
2017-04-04T05:05:18.771Z,95.65
2017-04-04T05:06:31.309Z,95.36
2017-04-04T05:07:43.806Z,95.46
2017-04-04T05:08:56.329Z,96.12
2017-04-04T05:10:07.974Z,95.75
2017-04-04T05:11:20.475Z,95.36
2017-04-04T05:12:33.000Z,95.65
2017-04-04T05:13:45.518Z,95.84
2017-04-04T05:14:57.738Z,95.36
2017-04-04T05:16:10.251Z,95.75
2017-04-04T05:17:22.783Z,95.56
2017-04-04T05:18:35.326Z,95.75
2017-04-04T05:19:47.843Z,95.56
2017-04-04T05:21:00.373Z,95.94
2017-04-04T05:22:12.916Z,96.03
2017-04-04T05:23:25.464Z,95.75
2017-04-04T05:24:37.934Z,95.94
2017-04-04T05:25:50.455Z,95.75
2017-04-04T05:27:02.990Z,95.75
2017-04-04T05:28:15.223Z,96.03
2017-04-04T05:29:27.842Z,95.84
2017-04-04T05:30:40.385Z,95.94
2017-04-04T05:31:52.631Z,95.84
2017-04-04T05:33:04.881Z,95.94
2017-04-04T05:34:17.440Z,95.84
2017-04-04T05:35:29.968Z,95.65
2017-04-04T05:36:42.486Z,95.94
2017-04-04T05:37:55.031Z,95.94
2017-04-04T05:39:07.237Z,95.27
2017-04-04T05:40:19.774Z,95.27
2017-04-04T05:41:32.326Z,95.46
2017-04-04T05:42:44.846Z,95.36
2017-04-04T05:43:57.061Z,95.36
2017-04-04T05:45:09.590Z,95.03
2017-04-04T05:46:22.161Z,95.12
2017-04-04T05:47:34.403Z,95.03
2017-04-04T05:48:46.950Z,94.37
2017-04-04T05:49:59.473Z,94.08
2017-04-04T05:51:12.013Z,94.08
2017-04-04T05:52:24.541Z,94.27
2017-04-04T05:53:37.078Z,93.7
2017-04-04T05:54:49.585Z,93.7
2017-04-04T05:56:02.096Z,93.55
2017-04-04T05:57:14.688Z,93.46
2017-04-04T05:58:27.212Z,94.03
2017-04-04T05:59:39.462Z,93.46
2017-04-04T06:00:52.001Z,93.18
2017-04-04T06:02:04.236Z,92.7
2017-04-04T06:03:16.778Z,92.41
2017-04-04T06:04:29.049Z,92.6
2017-04-04T06:05:41.317Z,92.7
2017-04-04T06:06:53.859Z,92.13
2017-04-04T06:08:06.085Z,92.22
2017-04-04T06:09:18.332Z,91.94
2017-04-04T06:10:30.251Z,92.41
2017-04-04T06:11:42.477Z,92.6
2017-04-04T06:12:55.035Z,92.13
2017-04-04T06:14:07.260Z,92.03
2017-04-04T06:15:19.805Z,91.94
2017-04-04T06:16:32.058Z,92.03
2017-04-04T06:17:44.626Z,92.13
2017-04-04T06:18:57.117Z,92.03
2017-04-04T06:20:09.705Z,92.03
2017-04-04T06:21:21.642Z,91.65
2017-04-04T06:22:34.163Z,91.46
2017-04-04T06:23:46.702Z,91.41
2017-04-04T06:24:59.222Z,91.13
2017-04-04T06:26:11.743Z,91.13
2017-04-04T06:27:23.954Z,90.84
2017-04-04T06:28:36.489Z,90.84
2017-04-04T06:29:49.039Z,91.13
2017-04-04T06:31:01.587Z,90.65
2017-04-04T06:32:14.130Z,90.56
2017-04-04T06:33:26.669Z,90.56
2017-04-04T06:34:39.194Z,89.79
2017-04-04T06:35:51.432Z,90.08
2017-04-04T06:37:03.936Z,89.98
2017-04-04T06:38:16.149Z,89.98
2017-04-04T06:39:28.678Z,90.17
2017-04-04T06:40:40.877Z,90.17
2017-04-04T06:41:53.124Z,90.17
2017-04-04T06:43:05.668Z,89.89
2017-04-04T06:44:18.182Z,89.98
2017-04-04T06:45:30.700Z,90.17
2017-04-04T06:46:43.231Z,89.32
2017-04-04T06:47:55.777Z,89.89
2017-04-04T06:49:08.292Z,89.51
2017-04-04T06:50:20.526Z,89.79
2017-04-04T06:51:33.093Z,89.98
2017-04-04T06:52:45.640Z,90.08
2017-04-04T06:53:57.895Z,89.61
2017-04-04T06:55:10.118Z,89.46
2017-04-04T06:56:22.667Z,89.26
2017-04-04T06:57:35.220Z,89.46
2017-04-04T06:58:47.767Z,89.17
2017-04-04T07:00:00.010Z,89.26
2017-04-04T07:01:11.950Z,89.46
2017-04-04T07:02:24.496Z,89.07
2017-04-04T07:03:37.025Z,89.26
2017-04-04T07:04:49.287Z,89.46
2017-04-04T07:06:01.542Z,89.36
2017-04-04T07:07:13.784Z,88.7
2017-04-04T07:08:26.325Z,88.12
2017-04-04T07:09:38.580Z,87.55
2017-04-04T07:10:50.789Z,88.6
2017-04-04T07:12:03.318Z,88.45
2017-04-04T07:13:15.255Z,88.6
2017-04-04T07:14:27.755Z,88.79
2017-04-04T07:15:40.280Z,88.41
2017-04-04T07:16:52.805Z,87.93
2017-04-04T07:18:05.349Z,87.6
2017-04-04T07:19:17.914Z,87.98
2017-04-04T07:20:30.464Z,87.69
2017-04-04T07:21:43.002Z,88.07
2017-04-04T07:22:55.548Z,87.88
2017-04-04T07:24:07.796Z,87.5
2017-04-04T07:25:20.028Z,87.4
2017-04-04T07:26:32.547Z,87.31
2017-04-04T07:27:45.064Z,87.02
2017-04-04T07:28:57.317Z,87.4
2017-04-04T07:30:09.877Z,88.07
2017-04-04T07:31:22.419Z,87.6
2017-04-04T07:32:34.952Z,87.35
2017-04-04T07:33:46.886Z,87.83
2017-04-04T07:34:59.435Z,87.07
2017-04-04T07:36:11.678Z,86.59
2017-04-04T07:37:23.903Z,86.98
2017-04-04T07:38:36.430Z,86.69
2017-04-04T07:39:48.966Z,86.4
2017-04-04T07:41:01.750Z,86.02
2017-04-04T07:42:13.994Z,86.11
2017-04-04T07:43:26.228Z,85.83
2017-04-04T07:44:38.453Z,85.93
2017-04-04T07:45:50.998Z,86.4
2017-04-04T07:47:03.526Z,85.64
2017-04-04T07:48:16.064Z,86.21
2017-04-04T07:49:28.290Z,86.02
2017-04-04T07:50:40.811Z,85.93
2017-04-04T07:51:53.357Z,85.93
2017-04-04T07:53:05.920Z,84.88
2017-04-04T07:54:18.144Z,84.88
2017-04-04T07:55:30.394Z,85.25
2017-04-04T07:56:42.941Z,84.92
2017-04-04T07:57:55.164Z,85.39
2017-04-04T07:59:07.710Z,84.63
2017-04-04T08:00:19.960Z,84.63
2017-04-04T08:01:32.195Z,84.44
2017-04-04T08:02:44.723Z,84.44
2017-04-04T08:03:57.261Z,84.82
2017-04-04T08:05:09.771Z,84.25
2017-04-04T08:06:22.337Z,84.06
2017-04-04T08:07:34.849Z,83.96
2017-04-04T08:08:47.078Z,84.25
2017-04-04T08:09:59.626Z,84.06
2017-04-04T08:11:12.159Z,84.06
2017-04-04T08:12:24.688Z,84.25
2017-04-04T08:13:37.236Z,83.87
2017-04-04T08:14:49.472Z,84.44
2017-04-04T08:16:02.054Z,84.34
2017-04-04T08:17:14.616Z,83.96
2017-04-04T08:18:26.871Z,84.34
2017-04-04T08:19:39.417Z,83.87
2017-04-04T08:20:51.988Z,83.87
2017-04-04T08:22:04.511Z,84.25
2017-04-04T08:23:16.779Z,84.06
2017-04-04T08:24:29.017Z,84.63
2017-04-04T08:25:41.246Z,84.72
2017-04-04T08:26:53.784Z,84.53
2017-04-04T08:28:06.009Z,84.44
2017-04-04T08:29:18.252Z,84.92
2017-04-04T08:30:30.808Z,84.25
2017-04-04T08:31:43.031Z,84.34
2017-04-04T08:32:55.568Z,84.53
2017-04-04T08:34:08.081Z,84.34
2017-04-04T08:35:20.610Z,84.34
2017-04-04T08:36:32.560Z,84.92
2017-04-04T08:37:44.495Z,84.72
2017-04-04T08:38:56.722Z,84.69
2017-04-04T08:40:08.973Z,84.34
2017-04-04T08:41:21.243Z,84.44
2017-04-04T08:42:33.780Z,84.97
2017-04-04T08:43:46.026Z,84.72
2017-04-04T08:44:58.576Z,84.82
2017-04-04T08:46:10.798Z,84.63
2017-04-04T08:47:23.048Z,84.63
2017-04-04T08:48:35.564Z,84.25
2017-04-04T08:49:48.106Z,84.25
2017-04-04T08:51:00.655Z,84.1
2017-04-04T08:52:12.923Z,83.96
2017-04-04T08:53:25.526Z,84.1
2017-04-04T08:54:37.794Z,83.43
2017-04-04T08:55:50.008Z,83.62
2017-04-04T08:57:02.532Z,83.24
2017-04-04T08:58:15.084Z,83.53
2017-04-04T08:59:27.634Z,82.76
2017-04-04T09:00:39.865Z,83.24
2017-04-04T09:01:52.149Z,82.76
2017-04-04T09:03:04.665Z,82.67
2017-04-04T09:04:17.185Z,82.67
2017-04-04T09:05:29.411Z,82.67
2017-04-04T09:06:41.952Z,82.86
2017-04-04T09:07:53.900Z,82.86
2017-04-04T09:09:06.137Z,83.24
2017-04-04T09:10:18.368Z,82.91
2017-04-04T09:11:30.611Z,83.11
2017-04-04T09:12:43.136Z,83.29
2017-04-04T09:13:55.382Z,83.43
2017-04-04T09:15:07.924Z,83.2
2017-04-04T09:16:20.170Z,84.1
2017-04-04T09:17:32.719Z,83.91
2017-04-04T09:18:45.254Z,82.95
2017-04-04T09:19:57.801Z,82.82
2017-04-04T09:21:10.021Z,83.24
2017-04-04T09:22:22.542Z,83.43
2017-04-04T09:23:34.775Z,83.43
2017-04-04T09:24:46.991Z,83.05
2017-04-04T09:25:59.530Z,82.86
2017-04-04T09:27:12.075Z,83.43
2017-04-04T09:28:24.605Z,83.24
2017-04-04T09:29:37.150Z,82.95
2017-04-04T09:30:49.693Z,82.86
2017-04-04T09:32:01.947Z,82.76
2017-04-04T09:33:14.491Z,82.76
2017-04-04T09:34:26.734Z,83.24
2017-04-04T09:35:39.326Z,83.05
2017-04-04T09:36:51.867Z,82.67
2017-04-04T09:38:04.401Z,82.57
2017-04-04T09:39:16.635Z,82.95
2017-04-04T09:40:29.214Z,82.86
2017-04-04T09:41:41.460Z,82.95
2017-04-04T09:42:54.002Z,82.38
2017-04-04T09:44:05.952Z,82.76
2017-04-04T09:45:18.473Z,82.67
2017-04-04T09:46:30.717Z,82.67
2017-04-04T09:47:42.960Z,82.86
2017-04-04T09:48:55.531Z,82.48
2017-04-04T09:50:07.784Z,82.76
2017-04-04T09:51:20.323Z,82.67
2017-04-04T09:52:32.569Z,82.86
2017-04-04T09:53:44.513Z,82.95
2017-04-04T09:54:57.036Z,82.57
2017-04-04T09:56:09.303Z,82.57
2017-04-04T09:57:21.835Z,82.48
2017-04-04T09:58:34.131Z,82.57
2017-04-04T09:59:45.765Z,82.48
2017-04-04T10:00:58.261Z,82.04
2017-04-04T10:02:10.786Z,82.23
2017-04-04T10:03:22.728Z,82.32
2017-04-04T10:04:34.975Z,82.04
2017-04-04T10:05:47.523Z,82.14
2017-04-04T10:07:00.044Z,82.42
2017-04-04T10:08:12.315Z,81.95
2017-04-04T10:09:24.535Z,81.56
2017-04-04T10:10:36.786Z,82.04
2017-04-04T10:11:49.310Z,81.76
2017-04-04T10:13:01.846Z,81.56
2017-04-04T10:14:14.392Z,81.47
2017-04-04T10:15:26.900Z,81.6
2017-04-04T10:16:39.158Z,81.7
2017-04-04T10:17:51.986Z,81.03
2017-04-04T10:19:04.535Z,81.32
2017-04-04T10:20:16.829Z,80.65
2017-04-04T10:21:29.074Z,80.74
2017-04-04T10:22:41.599Z,80.46
2017-04-04T10:23:53.841Z,80.69
2017-04-04T10:25:06.410Z,80.69
2017-04-04T10:26:18.935Z,80.5
2017-04-04T10:27:31.524Z,80.5
2017-04-04T10:28:44.066Z,80.21
2017-04-04T10:29:56.295Z,79.64
2017-04-04T10:31:08.535Z,79.83
2017-04-04T10:32:20.783Z,79.93
2017-04-04T10:33:33.333Z,79.73
2017-04-04T10:34:45.930Z,79.68
2017-04-04T10:35:58.474Z,79.54
2017-04-04T10:37:11.024Z,79.64
2017-04-04T10:38:23.233Z,79.64
2017-04-04T10:39:35.766Z,80.21
2017-04-04T10:40:48.288Z,79.83
2017-04-04T10:42:00.826Z,79.93
2017-04-04T10:43:13.104Z,80.3
2017-04-04T10:44:25.051Z,80.06
2017-04-04T10:45:37.289Z,79.73
2017-04-04T10:46:49.838Z,80.82
2017-04-04T10:48:02.380Z,79.77
2017-04-04T10:49:14.373Z,79.49
2017-04-04T10:50:26.596Z,79.39
2017-04-04T10:51:39.176Z,79.68
2017-04-04T10:52:51.713Z,79.29
2017-04-04T10:54:04.255Z,78.63
2017-04-04T10:55:16.159Z,79
2017-04-04T10:56:28.680Z,78.63
2017-04-04T10:57:40.929Z,79
2017-04-04T10:58:53.476Z,79
2017-04-04T11:00:06.038Z,78.72
2017-04-04T11:01:18.593Z,78.43
2017-04-04T11:02:31.128Z,78.53
2017-04-04T11:03:43.659Z,78.47
2017-04-04T11:04:55.623Z,78.47
2017-04-04T11:06:07.843Z,78.86
2017-04-04T11:07:20.093Z,77.99
2017-04-04T11:08:32.617Z,77.33
2017-04-04T11:09:44.863Z,77.42
2017-04-04T11:10:57.410Z,76.65
2017-04-04T11:12:09.652Z,76.37
2017-04-04T11:13:21.298Z,76.56
2017-04-04T11:14:33.825Z,77.04
2017-04-04T11:15:46.033Z,76.84
2017-04-04T11:16:57.653Z,76.65
2017-04-04T11:18:10.184Z,76.56
2017-04-04T11:19:22.732Z,77.13
2017-04-04T11:20:35.277Z,77.61
2017-04-04T11:21:47.837Z,78.19
2017-04-04T11:23:00.042Z,77.9
2017-04-04T11:24:12.580Z,78.19
2017-04-04T11:25:24.849Z,77.99
2017-04-04T11:26:37.377Z,77.99
2017-04-04T11:27:49.619Z,77.9
2017-04-04T11:29:01.571Z,78.19
2017-04-04T11:30:14.111Z,77.7
2017-04-04T11:31:26.662Z,77.04
2017-04-04T11:32:39.192Z,76.65
2017-04-04T11:33:51.131Z,76.65
2017-04-04T11:35:03.677Z,76.65
2017-04-04T11:36:16.224Z,76.46
2017-04-04T11:37:28.795Z,76.02
2017-04-04T11:38:41.053Z,75.54
2017-04-04T11:39:52.982Z,75.07
2017-04-04T11:41:05.525Z,75.07
2017-04-04T11:42:18.074Z,74.4
2017-04-04T11:43:30.620Z,74.58
2017-04-04T11:44:43.169Z,74.49
2017-04-04T11:45:55.708Z,74.97
2017-04-04T11:47:08.240Z,74.97
2017-04-04T11:48:20.774Z,75.35
2017-04-04T11:49:33.321Z,75.83
2017-04-04T11:50:45.845Z,76.21
2017-04-04T11:51:58.409Z,76.65
2017-04-04T11:53:10.358Z,76.75
2017-04-04T11:54:22.900Z,76.56
2017-04-04T11:55:35.110Z,76.94
2017-04-04T11:56:47.631Z,76.65
2017-04-04T11:58:00.174Z,76.75
2017-04-04T11:59:12.690Z,76.56
2017-04-04T12:00:24.942Z,76.84
2017-04-04T12:01:37.486Z,77.13
2017-04-04T12:02:49.707Z,76.56
2017-04-04T12:04:02.252Z,76.81
2017-04-04T12:05:14.196Z,76.9
2017-04-04T12:06:26.772Z,77.09
2017-04-04T12:07:39.329Z,77.57
2017-04-04T12:08:51.533Z,77.76
2017-04-04T12:10:03.772Z,78.81
2017-04-04T12:11:16.301Z,77.95
2017-04-04T12:12:28.843Z,78.14
2017-04-04T12:13:41.371Z,78.34
2017-04-04T12:14:53.617Z,78.72
2017-04-04T12:16:05.851Z,78.81
2017-04-04T12:17:18.876Z,78.14
2017-04-04T12:18:31.400Z,78.87
2017-04-04T12:19:43.943Z,78.97
2017-04-04T12:20:56.514Z,78.72
2017-04-04T12:22:09.031Z,78.68
2017-04-04T12:23:21.538Z,78.78
2017-04-04T12:24:34.105Z,78.87
2017-04-04T12:25:46.633Z,79.73
2017-04-04T12:26:59.172Z,78.97
2017-04-04T12:28:11.682Z,78.68
2017-04-04T12:29:24.242Z,78.58
2017-04-04T12:30:36.459Z,79.64
2017-04-04T12:31:49.003Z,78.97
2017-04-04T12:33:01.254Z,78.78
2017-04-04T12:34:13.815Z,79.35
2017-04-04T12:35:26.347Z,79.64
2017-04-04T12:36:38.889Z,79.73
2017-04-04T12:37:50.780Z,79.25
2017-04-04T12:39:03.275Z,79.73
2017-04-04T12:40:15.802Z,79.73
2017-04-04T12:41:28.023Z,80.02
2017-04-04T12:42:40.552Z,80.3
2017-04-04T12:43:53.082Z,80.3
2017-04-04T12:45:05.008Z,80.59
2017-04-04T12:46:17.560Z,80.4
2017-04-04T12:47:30.081Z,80.59
2017-04-04T12:48:42.624Z,80.59
2017-04-04T12:49:55.190Z,80.98
2017-04-04T12:51:07.742Z,80.5
2017-04-04T12:52:20.284Z,81.03
2017-04-04T12:53:32.851Z,80.84
2017-04-04T12:54:45.053Z,81.22
2017-04-04T12:55:57.321Z,80.84
2017-04-04T12:57:09.846Z,80.98
2017-04-04T12:58:22.385Z,81.55
2017-04-04T12:59:34.933Z,81.41
2017-04-04T13:00:47.491Z,80.88
2017-04-04T13:02:00.034Z,80.79
2017-04-04T13:03:12.542Z,80.59
2017-04-04T13:04:24.752Z,80.88
2017-04-04T13:05:37.283Z,80.88
2017-04-04T13:06:49.530Z,80.88
2017-04-04T13:08:01.765Z,80.79
2017-04-04T13:09:14.004Z,80.69
2017-04-04T13:10:26.521Z,80.5
2017-04-04T13:11:39.092Z,80.59
2017-04-04T13:12:51.667Z,80.69
2017-04-04T13:14:03.917Z,80.5
2017-04-04T13:15:16.477Z,80.88
2017-04-04T13:16:28.981Z,80.88
2017-04-04T13:17:41.243Z,80.59
2017-04-04T13:18:53.819Z,80.59
2017-04-04T13:20:06.371Z,80.5
2017-04-04T13:21:18.334Z,80.5
2017-04-04T13:22:30.877Z,80.4
2017-04-04T13:23:43.422Z,80.69
2017-04-04T13:24:55.948Z,81.16
2017-04-04T13:26:08.490Z,80.98
2017-04-04T13:27:20.985Z,81.16
2017-04-04T13:28:33.189Z,81.07
2017-04-04T13:29:45.731Z,81.26
2017-04-04T13:30:58.299Z,80.88
2017-04-04T13:32:10.827Z,81.36
2017-04-04T13:33:23.376Z,80.79
2017-04-04T13:34:35.347Z,81.07
2017-04-04T13:35:47.582Z,81.36
2017-04-04T13:36:59.804Z,81.45
2017-04-04T13:38:12.349Z,81.55
2017-04-04T13:39:24.894Z,81.45
2017-04-04T13:40:37.123Z,81.93
2017-04-04T13:41:49.665Z,81.45
2017-04-04T13:43:02.186Z,81.65
2017-04-04T13:44:14.732Z,81.55
2017-04-04T13:45:26.985Z,82.03
2017-04-04T13:46:39.553Z,81.84
2017-04-04T13:47:52.095Z,81.36
2017-04-04T13:49:04.638Z,81.74
2017-04-04T13:50:17.186Z,81.74
2017-04-04T13:51:29.733Z,81.55
2017-04-04T13:52:42.257Z,81.79
2017-04-04T13:53:54.796Z,81.6
2017-04-04T13:55:07.300Z,81.51
2017-04-04T13:56:19.849Z,81.99
2017-04-04T13:57:32.366Z,81.89
2017-04-04T13:58:44.888Z,81.99
2017-04-04T13:59:57.412Z,81.99
2017-04-04T14:01:09.657Z,82.28
2017-04-04T14:02:22.192Z,82.08
2017-04-04T14:03:34.441Z,81.79
2017-04-04T14:04:46.992Z,81.89
2017-04-04T14:05:58.917Z,81.99
2017-04-04T14:07:11.163Z,81.89
2017-04-04T14:08:23.401Z,82.28
2017-04-04T14:09:35.952Z,82.18
2017-04-04T14:10:48.489Z,81.99
2017-04-04T14:12:01.010Z,81.79
2017-04-04T14:13:13.556Z,81.79
2017-04-04T14:14:25.451Z,82.18
2017-04-04T14:15:37.972Z,82.28
2017-04-04T14:16:50.493Z,81.79
2017-04-04T14:18:03.043Z,81.89
2017-04-04T14:19:15.268Z,82.08
2017-04-04T14:20:27.813Z,81.99
2017-04-04T14:21:40.035Z,82.08
2017-04-04T14:22:52.280Z,81.89
2017-04-04T14:24:04.781Z,81.79
2017-04-04T14:25:16.998Z,82.08
2017-04-04T14:26:28.939Z,81.99
2017-04-04T14:27:41.489Z,81.79
2017-04-04T14:28:54.007Z,82.65
2017-04-04T14:30:06.527Z,81.99
2017-04-04T14:31:18.773Z,82.18
2017-04-04T14:32:31.327Z,82.46
2017-04-04T14:33:43.565Z,82.84
2017-04-04T14:34:56.111Z,81.79
2017-04-04T14:36:08.361Z,81.79
2017-04-04T14:37:20.582Z,81.89
2017-04-04T14:38:33.053Z,81.99
2017-04-04T14:39:45.597Z,82.08
2017-04-04T14:40:58.145Z,82.75
2017-04-04T14:42:10.699Z,83.23
2017-04-04T14:43:23.228Z,81.89
2017-04-04T14:44:35.461Z,81.79
2017-04-04T14:45:48.021Z,82.75
2017-04-04T14:47:00.267Z,82.84
2017-04-04T14:48:12.793Z,82.81
2017-04-04T14:49:25.046Z,82.84
2017-04-04T14:50:37.565Z,83.18
2017-04-04T14:51:50.067Z,82.84
2017-04-04T14:53:02.600Z,83
2017-04-04T14:54:15.154Z,83.18
2017-04-04T14:55:27.699Z,83.28
2017-04-04T14:56:40.262Z,83.95
2017-04-04T14:57:52.804Z,83.76
2017-04-04T14:59:04.759Z,83.57
2017-04-04T15:00:16.985Z,83.57
2017-04-04T15:01:29.529Z,84.05
2017-04-04T15:02:41.167Z,84.62
2017-04-04T15:03:53.692Z,84.52
2017-04-04T15:05:06.217Z,84.43
2017-04-04T15:06:18.455Z,84.96
2017-04-04T15:07:30.685Z,84.86
2017-04-04T15:08:43.227Z,84.2
2017-04-04T15:09:55.743Z,84.86
2017-04-04T15:11:07.667Z,84.86
2017-04-04T15:12:19.893Z,84.67
2017-04-04T15:13:32.413Z,85.53
2017-04-04T15:14:44.956Z,84.48
2017-04-04T15:15:57.193Z,85.25
2017-04-04T15:17:09.147Z,85.05
2017-04-04T15:18:21.693Z,85.39
2017-04-04T15:19:34.239Z,85.49
2017-04-04T15:20:46.481Z,85.3
2017-04-04T15:21:59.028Z,86.06
2017-04-04T15:23:11.569Z,86.16
2017-04-04T15:24:24.098Z,86.06
2017-04-04T15:25:36.323Z,86.16
2017-04-04T15:26:48.846Z,86.16
2017-04-04T15:28:01.390Z,86.06
2017-04-04T15:29:13.903Z,86.54
2017-04-04T15:30:25.831Z,87.21
2017-04-04T15:31:38.367Z,86.92
2017-04-04T15:32:50.919Z,86.73
2017-04-04T15:34:03.465Z,86.98
2017-04-04T15:35:16.008Z,86.92
2017-04-04T15:36:28.538Z,86.73